createdAt,value
2022-11-14T00:01:32.196Z,5.30
2022-11-14T00:04:37.591Z,5.50
2022-11-14T00:07:43.468Z,5.87
2022-11-14T00:10:51.084Z,5.53
2022-11-14T00:13:56.873Z,5.70
2022-11-14T00:17:02.468Z,5.57
2022-11-14T00:20:10.871Z,5.90
2022-11-14T00:23:16.594Z,5.63
2022-11-14T00:26:22.771Z,5.77
2022-11-14T00:29:28.141Z,5.87
2022-11-14T00:32:33.591Z,6.17
2022-11-14T00:35:39.080Z,5.97
2022-11-14T00:38:44.240Z,5.63
2022-11-14T00:42:01.998Z,5.90
2022-11-14T00:45:08.159Z,5.97
2022-11-14T00:48:13.807Z,5.63
2022-11-14T00:51:19.123Z,5.70
2022-11-14T00:54:25.910Z,6.30
2022-11-14T00:57:32.127Z,6.03
2022-11-14T01:00:37.896Z,5.90
2022-11-14T01:03:46.575Z,6.57
2022-11-14T01:06:52.125Z,6.53
2022-11-14T01:09:57.658Z,6.50
2022-11-14T01:13:04.217Z,6.73
2022-11-14T01:16:10.355Z,6.57
2022-11-14T01:19:15.767Z,6.43
2022-11-14T01:22:20.972Z,6.73
2022-11-14T01:25:26.600Z,6.53
2022-11-14T01:28:32.633Z,6.33
2022-11-14T01:31:37.965Z,6.17
2022-11-14T01:34:43.686Z,7.03
2022-11-14T01:37:49.193Z,7.03
2022-11-14T01:40:54.372Z,7.00
2022-11-14T01:44:00.076Z,6.80
2022-11-14T01:47:06.099Z,6.83
2022-11-14T01:50:11.609Z,7.47
2022-11-14T01:53:17.114Z,7.10
2022-11-14T01:56:27.481Z,7.43
2022-11-14T01:59:37.473Z,7.53
2022-11-14T02:02:43.449Z,7.70
2022-11-14T02:05:50.278Z,8.43
2022-11-14T02:08:57.314Z,7.83
2022-11-14T02:12:05.463Z,8.10
2022-11-14T02:15:12.209Z,7.83
2022-11-14T02:18:17.634Z,9.87
2022-11-14T02:21:23.780Z,10.63
2022-11-14T02:24:29.442Z,10.00
2022-11-14T02:27:35.738Z,10.80
2022-11-14T02:30:41.223Z,10.53
2022-11-14T02:33:47.058Z,10.07
2022-11-14T02:36:53.594Z,10.50
2022-11-14T02:39:59.094Z,9.77
2022-11-14T02:43:05.058Z,9.97
2022-11-14T02:46:11.003Z,11.00
2022-11-14T02:49:16.355Z,10.47
2022-11-14T02:52:22.676Z,9.33
2022-11-14T02:55:28.403Z,9.87
2022-11-14T02:58:34.174Z,9.10
2022-11-14T03:01:39.901Z,9.00
2022-11-14T03:04:45.676Z,10.33
2022-11-14T03:07:53.935Z,9.43
2022-11-14T03:11:04.096Z,9.73
2022-11-14T03:14:09.498Z,9.97
2022-11-14T03:17:14.762Z,9.87
2022-11-14T03:20:20.911Z,10.67
2022-11-14T03:23:26.755Z,10.03
2022-11-14T03:26:31.847Z,10.10
2022-11-14T03:29:37.391Z,9.20
2022-11-14T03:32:42.612Z,10.20
2022-11-14T03:35:49.168Z,10.30
2022-11-14T03:38:55.624Z,10.47
2022-11-14T03:42:01.293Z,10.57
2022-11-14T03:45:07.104Z,10.83
2022-11-14T03:48:12.916Z,10.87
2022-11-14T03:51:18.498Z,10.70
2022-11-14T03:54:24.611Z,11.63
2022-11-14T03:57:30.229Z,11.10
2022-11-14T04:00:35.857Z,10.70
2022-11-14T04:03:41.165Z,10.27
2022-11-14T04:06:46.751Z,11.33
2022-11-14T04:09:53.154Z,10.93
2022-11-14T04:12:58.542Z,10.90
2022-11-14T04:16:04.409Z,10.80
2022-11-14T04:19:09.967Z,10.83
2022-11-14T04:22:15.265Z,10.77
2022-11-14T04:25:21.282Z,12.03
2022-11-14T04:28:26.518Z,12.27
2022-11-14T04:31:31.923Z,11.97
2022-11-14T04:34:38.120Z,12.07
2022-11-14T04:37:43.438Z,11.23
2022-11-14T04:40:50.231Z,12.17
2022-11-14T04:43:55.789Z,11.77
2022-11-14T04:47:00.938Z,12.70
2022-11-14T04:50:07.438Z,11.40
2022-11-14T04:53:12.643Z,12.47
2022-11-14T04:56:22.338Z,11.97
2022-11-14T04:59:27.926Z,12.00
2022-11-14T05:02:33.291Z,12.50
2022-11-14T05:05:41.967Z,12.43
2022-11-14T05:08:47.994Z,11.47
2022-11-14T05:11:54.060Z,12.23
2022-11-14T05:15:00.233Z,11.53
2022-11-14T05:18:05.781Z,13.27
2022-11-14T05:21:13.475Z,11.90
2022-11-14T05:24:19.104Z,12.03
2022-11-14T05:27:25.069Z,12.20
2022-11-14T05:30:30.335Z,13.10
2022-11-14T05:33:35.995Z,11.73
2022-11-14T05:36:41.388Z,13.03
2022-11-14T05:39:46.749Z,11.90
2022-11-14T05:42:58.949Z,12.70
2022-11-14T05:46:06.226Z,13.43
2022-11-14T05:49:11.545Z,13.57
2022-11-14T05:52:16.999Z,13.87
2022-11-14T05:55:25.056Z,15.73
2022-11-14T05:58:35.265Z,16.87
2022-11-14T06:01:40.593Z,16.33
2022-11-14T06:04:45.937Z,14.87
2022-11-14T06:07:55.785Z,14.20
2022-11-14T06:11:06.110Z,13.63
2022-11-14T06:14:12.081Z,11.87
2022-11-14T06:17:17.326Z,13.23
2022-11-14T06:20:23.453Z,14.27
2022-11-14T06:23:29.230Z,14.77
2022-11-14T06:26:34.685Z,15.73
2022-11-14T06:29:40.458Z,16.10
2022-11-14T06:32:45.753Z,16.90
2022-11-14T06:35:51.042Z,14.97
2022-11-14T06:38:56.417Z,14.93
2022-11-14T06:42:02.085Z,14.17
2022-11-14T06:45:09.206Z,14.33
2022-11-14T06:48:14.809Z,14.97
2022-11-14T06:51:20.254Z,14.53
2022-11-14T06:54:25.954Z,15.77
2022-11-14T06:57:31.630Z,14.67
2022-11-14T07:00:37.870Z,15.47
2022-11-14T07:03:44.050Z,16.40
2022-11-14T07:06:49.410Z,15.23
2022-11-14T07:09:55.770Z,15.70
2022-11-14T07:13:01.362Z,15.40
2022-11-14T07:16:07.814Z,16.20
2022-11-14T07:19:13.234Z,15.30
2022-11-14T07:22:19.019Z,14.10
2022-11-14T07:25:24.187Z,15.43
2022-11-14T07:28:31.396Z,14.73
2022-11-14T07:31:37.692Z,13.50
2022-11-14T07:34:43.166Z,13.67
2022-11-14T07:37:49.031Z,13.00
2022-11-14T07:40:59.527Z,14.30
2022-11-14T07:44:05.452Z,15.73
2022-11-14T07:47:11.480Z,15.80
2022-11-14T07:50:20.345Z,15.60
2022-11-14T07:53:25.964Z,16.47
2022-11-14T07:56:31.404Z,14.57
2022-11-14T07:59:36.930Z,15.03
2022-11-14T08:02:43.166Z,16.20
2022-11-14T08:05:48.579Z,15.07
2022-11-14T08:08:54.014Z,14.73
2022-11-14T08:11:59.889Z,14.97
2022-11-14T08:15:06.819Z,15.83
2022-11-14T08:18:12.655Z,14.20
2022-11-14T08:21:18.080Z,15.00
2022-11-14T08:24:23.572Z,14.90
2022-11-14T08:27:28.936Z,15.17
2022-11-14T08:30:34.519Z,17.13
2022-11-14T08:33:40.890Z,17.00
2022-11-14T08:36:46.571Z,16.50
2022-11-14T08:39:52.234Z,17.37
2022-11-14T08:43:01.405Z,15.73
2022-11-14T08:46:07.034Z,14.33
2022-11-14T08:49:12.732Z,13.13
2022-11-14T08:52:18.372Z,12.47
2022-11-14T08:55:23.906Z,13.47
2022-11-14T08:58:30.545Z,13.20
2022-11-14T09:01:36.589Z,12.33
2022-11-14T09:04:42.513Z,11.93
2022-11-14T09:07:47.959Z,11.30
2022-11-14T09:10:53.180Z,12.00
2022-11-14T09:14:00.556Z,11.50
2022-11-14T09:17:06.286Z,12.47
2022-11-14T09:20:12.818Z,12.83
2022-11-14T09:23:20.829Z,13.30
2022-11-14T09:26:26.137Z,12.63
2022-11-14T09:29:31.270Z,13.47
2022-11-14T09:32:36.650Z,13.70
2022-11-14T09:35:42.516Z,13.33
2022-11-14T09:38:48.088Z,14.13
2022-11-14T09:42:09.923Z,13.37
2022-11-14T09:45:18.606Z,13.77
2022-11-14T09:48:29.012Z,13.07
2022-11-14T09:51:44.635Z,14.53
2022-11-14T09:54:54.984Z,14.20
2022-11-14T09:58:01.757Z,13.90
2022-11-14T10:01:12.394Z,14.77
2022-11-14T10:04:23.547Z,14.37
2022-11-14T10:07:39.837Z,15.40
2022-11-14T10:10:51.542Z,14.10
2022-11-14T10:14:34.574Z,15.00
2022-11-14T10:17:51.334Z,14.73
2022-11-14T10:21:03.227Z,14.23
2022-11-14T10:24:23.682Z,14.30
2022-11-14T10:27:33.280Z,14.97
2022-11-14T10:30:44.243Z,14.13
2022-11-14T10:33:56.720Z,14.33
2022-11-14T10:37:09.494Z,14.30
2022-11-14T10:40:18.473Z,14.10
2022-11-14T10:43:27.849Z,14.30
2022-11-14T10:46:38.731Z,14.13
2022-11-14T10:49:46.558Z,14.17
2022-11-14T10:52:56.127Z,13.47
2022-11-14T10:56:04.695Z,13.57
2022-11-14T10:59:10.928Z,13.87
2022-11-14T11:02:16.302Z,12.47
2022-11-14T11:05:24.701Z,13.80
2022-11-14T11:08:48.588Z,13.03
2022-11-14T11:11:57.384Z,13.27
2022-11-14T11:15:15.456Z,12.47
2022-11-14T11:18:27.218Z,14.30
2022-11-14T11:21:47.723Z,13.93
2022-11-14T11:24:53.480Z,12.57
2022-11-14T11:28:06.135Z,11.77
2022-11-14T11:31:11.556Z,12.03
2022-11-14T11:34:21.869Z,10.90
2022-11-14T11:40:42.645Z,10.17
2022-11-14T11:43:56.886Z,9.63
2022-11-14T11:47:07.999Z,9.80
2022-11-14T11:50:16.382Z,10.20
2022-11-14T11:53:28.649Z,9.60
2022-11-14T11:56:35.905Z,9.40
2022-11-14T11:59:45.878Z,9.63
2022-11-14T12:02:53.318Z,9.80
2022-11-14T12:06:10.176Z,9.67
2022-11-14T12:09:22.122Z,10.03
2022-11-14T12:12:47.818Z,9.80
2022-11-14T12:16:11.662Z,9.87
2022-11-14T12:19:42.055Z,9.70
2022-11-14T12:23:35.544Z,10.20
2022-11-14T12:27:04.118Z,9.20
2022-11-14T12:30:13.952Z,10.00
2022-11-14T12:33:24.843Z,10.10
2022-11-14T12:36:32.920Z,10.97
2022-11-14T12:39:39.024Z,10.93
2022-11-14T12:42:46.709Z,8.97
2022-11-14T12:45:57.887Z,9.57
2022-11-14T12:49:36.619Z,8.63
2022-11-14T12:52:53.436Z,9.93
2022-11-14T12:56:33.950Z,9.27
2022-11-14T12:59:49.358Z,9.73
2022-11-14T13:03:15.778Z,9.60
2022-11-14T13:06:26.307Z,10.07
2022-11-14T13:09:36.095Z,9.60
2022-11-14T13:13:00.523Z,10.30
2022-11-14T13:16:39.552Z,10.00
2022-11-14T13:20:04.509Z,10.03
2022-11-14T13:23:43.142Z,11.13
2022-11-14T13:26:53.798Z,9.93
2022-11-14T13:30:01.812Z,10.47
2022-11-14T13:33:07.534Z,10.77
2022-11-14T13:36:26.422Z,10.13
2022-11-14T13:39:42.120Z,10.87
2022-11-14T13:42:59.044Z,10.97
2022-11-14T13:46:13.805Z,10.13
2022-11-14T13:49:37.769Z,10.33
2022-11-14T13:52:45.024Z,10.83
2022-11-14T13:55:59.261Z,10.70
2022-11-14T13:59:45.525Z,10.97
2022-11-14T14:03:15.827Z,11.17
2022-11-14T14:06:39.508Z,10.47
2022-11-14T14:09:53.507Z,10.07
2022-11-14T14:13:10.655Z,11.20
2022-11-14T14:16:24.758Z,11.20
2022-11-14T14:19:42.304Z,11.50
2022-11-14T14:22:55.809Z,10.80
2022-11-14T14:26:10.215Z,10.10
2022-11-14T14:29:23.433Z,12.37
2022-11-14T14:32:28.844Z,10.40
2022-11-14T14:35:40.699Z,12.20
2022-11-14T14:38:47.708Z,12.27
2022-11-14T14:41:56.733Z,12.37
2022-11-14T14:45:04.627Z,11.83
2022-11-14T14:48:13.453Z,13.37
2022-11-14T14:51:30.189Z,12.43
2022-11-14T14:54:35.819Z,13.43
2022-11-14T14:57:41.374Z,13.30
2022-11-14T15:00:52.470Z,13.60
2022-11-14T15:04:01.941Z,13.97
2022-11-14T15:07:19.406Z,13.70
2022-11-14T15:10:28.744Z,13.40
2022-11-14T15:13:35.644Z,13.57
2022-11-14T15:44:08.641Z,13.63
2022-11-14T15:47:38.118Z,14.10
2022-11-14T16:02:24.400Z,14.30
2022-11-14T16:05:30.837Z,13.67
2022-11-14T16:08:51.530Z,13.80
2022-11-14T16:11:57.104Z,13.50
2022-11-14T16:25:02.267Z,13.13
2022-11-14T16:28:34.035Z,14.13
2022-11-14T16:31:40.000Z,14.33
2022-11-14T16:34:45.498Z,13.43
2022-11-14T16:37:53.762Z,13.73
2022-11-14T16:40:59.755Z,13.47
2022-11-14T16:44:05.883Z,14.60
2022-11-14T16:47:13.823Z,14.70
2022-11-14T16:50:19.499Z,14.70
2022-11-14T16:53:25.031Z,14.67
2022-11-14T16:56:31.357Z,14.07
2022-11-14T16:59:36.871Z,13.60
2022-11-14T17:02:41.928Z,13.13
2022-11-14T17:05:49.363Z,14.53
2022-11-14T17:08:55.337Z,14.23
2022-11-14T17:12:01.428Z,13.50
2022-11-14T17:15:07.686Z,13.70
2022-11-14T17:18:13.225Z,14.40
2022-11-14T17:21:34.052Z,13.73
2022-11-14T17:24:39.926Z,14.40
2022-11-14T17:27:48.122Z,14.20
2022-11-14T17:30:53.638Z,13.83
2022-11-14T17:33:59.488Z,13.93
2022-11-14T17:37:04.902Z,14.03
2022-11-14T17:40:15.323Z,13.53
2022-11-14T17:43:23.798Z,13.93
2022-11-14T17:46:29.323Z,13.57
2022-11-14T17:49:34.466Z,13.20
2022-11-14T17:52:40.857Z,13.67
2022-11-14T17:55:46.242Z,14.40
2022-11-14T17:58:53.184Z,14.00
2022-11-14T18:01:59.148Z,12.77
2022-11-14T18:05:06.983Z,14.10
2022-11-14T18:08:12.875Z,13.20
2022-11-14T18:12:08.395Z,14.07
2022-11-14T18:15:14.652Z,12.87
2022-11-14T18:18:20.116Z,13.77
2022-11-14T18:21:26.017Z,13.60
2022-11-14T18:24:31.723Z,13.33
2022-11-14T18:27:37.424Z,13.37
2022-11-14T18:30:55.310Z,13.03
2022-11-14T18:34:01.895Z,13.30
2022-11-14T18:37:07.496Z,14.03
2022-11-14T18:40:16.581Z,13.90
2022-11-14T18:43:22.425Z,12.57
2022-11-14T18:46:31.923Z,13.10
2022-11-14T18:49:44.437Z,12.20
2022-11-14T18:52:49.896Z,12.73
2022-11-14T18:55:56.129Z,13.00
2022-11-14T18:59:01.565Z,12.60
2022-11-14T19:02:08.524Z,13.93
2022-11-14T19:05:39.338Z,13.90
2022-11-14T19:09:12.917Z,12.70
2022-11-14T19:12:46.172Z,13.60
2022-11-14T19:15:51.535Z,13.37
2022-11-14T19:19:48.914Z,13.90
2022-11-14T19:31:16.144Z,13.57
2022-11-14T19:34:50.141Z,14.07
2022-11-14T19:38:20.421Z,14.13
2022-11-14T19:41:51.467Z,14.10
2022-11-14T19:44:58.315Z,14.07
2022-11-14T19:54:12.460Z,13.03
2022-11-14T19:57:43.442Z,13.20
2022-11-14T20:05:35.670Z,13.00
2022-11-14T20:08:41.546Z,13.67
2022-11-14T20:17:51.666Z,13.37
2022-11-14T20:21:02.262Z,12.47
2022-11-14T20:30:13.687Z,12.47
2022-11-14T20:33:19.470Z,12.67
2022-11-14T20:36:31.996Z,12.90
2022-11-14T20:39:41.146Z,13.10
2022-11-14T20:42:47.454Z,12.70
2022-11-14T20:45:57.231Z,12.80
2022-11-14T20:49:03.494Z,12.27
2022-11-14T20:52:14.343Z,12.50
2022-11-14T20:55:20.176Z,12.07
2022-11-14T20:58:25.699Z,12.20
2022-11-14T21:01:43.758Z,12.07
2022-11-14T21:04:49.799Z,12.37
2022-11-14T21:07:55.990Z,10.20
2022-11-14T21:11:04.047Z,11.13
2022-11-14T21:14:10.687Z,11.33
2022-11-14T21:17:16.412Z,11.27
2022-11-14T21:20:22.097Z,11.27
2022-11-14T21:23:28.142Z,10.90
2022-11-14T21:26:36.927Z,10.57
2022-11-14T21:29:42.535Z,11.30
2022-11-14T21:32:47.830Z,10.90
2022-11-14T21:35:53.306Z,10.23
2022-11-14T21:38:59.534Z,9.90
2022-11-14T21:42:05.017Z,10.77
2022-11-14T21:45:10.899Z,10.20
2022-11-14T21:48:16.642Z,10.73
2022-11-14T21:51:24.055Z,11.57
2022-11-14T21:54:29.956Z,9.63
2022-11-14T21:57:35.716Z,10.40
2022-11-14T22:00:41.266Z,11.13
2022-11-14T22:04:04.705Z,10.40
2022-11-14T22:07:10.171Z,10.20
2022-11-14T22:10:16.851Z,10.93
2022-11-14T22:13:22.371Z,11.03
2022-11-14T22:16:27.727Z,10.53
2022-11-14T22:19:33.042Z,10.53
2022-11-14T22:22:38.588Z,11.60
2022-11-14T22:25:52.499Z,12.27
2022-11-14T22:28:57.897Z,10.80
2022-11-14T22:32:03.704Z,11.67
2022-11-14T22:35:09.303Z,11.60
2022-11-14T22:38:14.694Z,11.53
2022-11-14T22:41:22.998Z,11.70
2022-11-14T22:44:30.810Z,11.43
2022-11-14T22:47:36.391Z,10.93
2022-11-14T22:50:41.927Z,11.50
2022-11-14T22:53:49.194Z,11.30
2022-11-14T22:56:55.322Z,11.20
2022-11-14T23:00:00.952Z,11.33
2022-11-14T23:03:06.771Z,11.03
2022-11-14T23:06:15.110Z,11.27
2022-11-14T23:09:20.402Z,11.17
2022-11-14T23:12:26.409Z,11.30
2022-11-14T23:15:32.175Z,12.60
2022-11-14T23:18:38.472Z,11.67
2022-11-14T23:21:43.748Z,11.50
2022-11-14T23:24:49.062Z,10.83
2022-11-14T23:27:55.228Z,11.67
2022-11-14T23:31:01.585Z,11.10
2022-11-14T23:34:07.043Z,10.43
2022-11-14T23:37:12.587Z,10.83
2022-11-14T23:40:18.307Z,11.67
2022-11-14T23:43:24.202Z,11.43
2022-11-14T23:46:29.812Z,11.70
2022-11-14T23:49:35.536Z,11.23
2022-11-14T23:52:40.928Z,11.00
2022-11-14T23:55:51.958Z,10.73
2022-11-14T23:58:58.321Z,10.50
